Amur-2507 — XUEC6 — position and weather

sailwx.info

Track history (hours):
 
Tides and Currents Weather Stations Pressure Air Temp Water Temp Dewpoint Dewpoint Depression Visibility Wind Speed Wind Dir Waves Ship Positions

Amur-2507

Last reported at 2014-Jun-24 03:26 UTC. Time now 2014-Jul-31 23:48 UTC.
Position N 46°37' E 032°35'.
Warning: this ship's position is 37 days out of date.

Length 115 m; draft 2.8 m.

Type: Cargo ship. MMSI: 515694000.

Date/timePositionNaut miles runAvg speedWind from/ knotsBaromVisibWave heightAir tempDewpointWater temp
2014-Jun-24 03:26N 46°37' E 032°35'  
2014-Jun-21 19:09N 44°30' E 034°16'2 3.2
2014-Jun-21 18:26N 44°32' E 034°17'0 0.0
2014-Jun-21 16:17N 44°32' E 034°17'0 0.0
2014-Jun-21 12:29N 44°32' E 034°17'0 0.1
2014-Jun-21 11:29N 44°32' E 034°17'0 0.0
2014-Jun-21 10:20N 44°32' E 034°17'0 0.0
2014-Jun-21 09:23N 44°32' E 034°17'0 0.0
2014-Jun-21 08:32N 44°32' E 034°17'0 0.0
2014-Jun-21 05:26N 44°32' E 034°17'4 4.0
2014-Jun-21 04:33N 44°31' E 034°22'5 5.2
2014-Jun-21 03:33N 44°34' E 034°27'5 4.8
2014-Jun-21 02:33N 44°37' E 034°33'5 4.6
2014-Jun-21 01:33N 44°35' E 034°39'5 4.8
2014-Jun-21 00:33N 44°35' E 034°45'5 4.9
2014-Jun-20 23:33N 44°38' E 034°52'5 4.8
2014-Jun-20 22:33N 44°40' E 034°58'  
Track history (hours):
 
Tides and Currents Weather Stations Pressure Air Temp Water Temp Dewpoint Dewpoint Depression Visibility Wind Speed Wind Dir Waves Ship Positions

Amur-2507

Last reported at 2014-Jun-24 03:26 UTC. Time now 2014-Jul-31 23:48 UTC.
Position N 46°37' E 032°35'.
Warning: this ship's position is 37 days out of date.

Length 115 m; draft 2.8 m.

Type: Cargo ship. MMSI: 515694000.

Date/timePositionNaut miles runAvg speedWind from/ knotsBaromVisibWave heightAir tempDewpointWater temp
2014-Jun-24 03:26N 46°37' E 032°35'  
2014-Jun-21 19:09N 44°30' E 034°16'2 3.2
2014-Jun-21 18:26N 44°32' E 034°17'0 0.0
2014-Jun-21 16:17N 44°32' E 034°17'0 0.0
2014-Jun-21 12:29N 44°32' E 034°17'0 0.1
2014-Jun-21 11:29N 44°32' E 034°17'0 0.0
2014-Jun-21 10:20N 44°32' E 034°17'0 0.0
2014-Jun-21 09:23N 44°32' E 034°17'0 0.0
2014-Jun-21 08:32N 44°32' E 034°17'0 0.0
2014-Jun-21 05:26N 44°32' E 034°17'4 4.0
2014-Jun-21 04:33N 44°31' E 034°22'5 5.2
2014-Jun-21 03:33N 44°34' E 034°27'5 4.8
2014-Jun-21 02:33N 44°37' E 034°33'5 4.6
2014-Jun-21 01:33N 44°35' E 034°39'5 4.8
2014-Jun-21 00:33N 44°35' E 034°45'5 4.9
2014-Jun-20 23:33N 44°38' E 034°52'5 4.8
2014-Jun-20 22:33N 44°40' E 034°58'  

Dump ship's entire track history